sensor_id;sensor_type;location;lat;lon;timestamp;temperature;humidity
71436;SHT31;59251;51.326;12.370;2023-06-19T00:00:41;20.04;67.20
71436;SHT31;59251;51.326;12.370;2023-06-19T00:03:08;19.95;67.42
71436;SHT31;59251;51.326;12.370;2023-06-19T00:05:35;19.94;67.55
71436;SHT31;59251;51.326;12.370;2023-06-19T00:08:02;19.85;67.74
71436;SHT31;59251;51.326;12.370;2023-06-19T00:10:29;19.84;67.86
71436;SHT31;59251;51.326;12.370;2023-06-19T00:12:55;19.78;68.02
71436;SHT31;59251;51.326;12.370;2023-06-19T00:15:23;19.77;68.12
71436;SHT31;59251;51.326;12.370;2023-06-19T00:17:50;19.71;68.36
71436;SHT31;59251;51.326;12.370;2023-06-19T00:20:17;19.70;68.44
71436;SHT31;59251;51.326;12.370;2023-06-19T00:22:43;19.67;68.49
71436;SHT31;59251;51.326;12.370;2023-06-19T00:25:10;19.66;68.53
71436;SHT31;59251;51.326;12.370;2023-06-19T00:27:37;19.71;68.47
71436;SHT31;59251;51.326;12.370;2023-06-19T00:30:06;19.70;68.47
71436;SHT31;59251;51.326;12.370;2023-06-19T00:32:34;19.67;68.49
71436;SHT31;59251;51.326;12.370;2023-06-19T00:35:12;19.73;68.28
71436;SHT31;59251;51.326;12.370;2023-06-19T00:37:38;19.73;68.21
71436;SHT31;59251;51.326;12.370;2023-06-19T00:40:14;19.77;68.10
71436;SHT31;59251;51.326;12.370;2023-06-19T00:42:42;19.77;67.99
71436;SHT31;59251;51.326;12.370;2023-06-19T00:45:09;19.81;67.84
71436;SHT31;59251;51.326;12.370;2023-06-19T00:47:38;19.85;67.74
71436;SHT31;59251;51.326;12.370;2023-06-19T00:50:05;19.87;67.53
71436;SHT31;59251;51.326;12.370;2023-06-19T00:52:33;19.88;67.48
71436;SHT31;59251;51.326;12.370;2023-06-19T00:55:01;19.85;67.39
71436;SHT31;59251;51.326;12.370;2023-06-19T00:57:29;19.85;67.42
71436;SHT31;59251;51.326;12.370;2023-06-19T00:59:56;19.80;67.68
71436;SHT31;59251;51.326;12.370;2023-06-19T01:02:24;19.88;67.42
71436;SHT31;59251;51.326;12.370;2023-06-19T01:04:53;19.84;67.39
71436;SHT31;59251;51.326;12.370;2023-06-19T01:07:27;19.94;67.16
71436;SHT31;59251;51.326;12.370;2023-06-19T01:10:00;19.97;67.02
71436;SHT31;59251;51.326;12.370;2023-06-19T01:12:33;19.95;66.94
71436;SHT31;59251;51.326;12.370;2023-06-19T01:15:03;19.95;66.80
71436;SHT31;59251;51.326;12.370;2023-06-19T01:17:32;19.97;66.76
71436;SHT31;59251;51.326;12.370;2023-06-19T01:20:00;19.97;66.80
71436;SHT31;59251;51.326;12.370;2023-06-19T01:22:33;20.01;66.71
71436;SHT31;59251;51.326;12.370;2023-06-19T01:25:00;19.98;66.77
71436;SHT31;59251;51.326;12.370;2023-06-19T01:27:27;19.98;66.78
71436;SHT31;59251;51.326;12.370;2023-06-19T01:29:57;19.98;66.80
71436;SHT31;59251;51.326;12.370;2023-06-19T01:32:29;19.98;66.92
71436;SHT31;59251;51.326;12.370;2023-06-19T01:34:58;19.94;67.04
71436;SHT31;59251;51.326;12.370;2023-06-19T01:37:26;19.97;67.14
71436;SHT31;59251;51.326;12.370;2023-06-19T01:39:58;19.88;67.36
71436;SHT31;59251;51.326;12.370;2023-06-19T01:42:26;19.82;67.47
71436;SHT31;59251;51.326;12.370;2023-06-19T01:44:53;19.80;67.57
71436;SHT31;59251;51.326;12.370;2023-06-19T01:47:20;19.78;67.63
71436;SHT31;59251;51.326;12.370;2023-06-19T01:49:47;19.77;67.69
71436;SHT31;59251;51.326;12.370;2023-06-19T01:52:14;19.74;67.72
71436;SHT31;59251;51.326;12.370;2023-06-19T01:54:41;19.69;67.89
71436;SHT31;59251;51.326;12.370;2023-06-19T01:57:09;19.73;67.81
71436;SHT31;59251;51.326;12.370;2023-06-19T01:59:36;19.74;67.71
71436;SHT31;59251;51.326;12.370;2023-06-19T02:02:04;19.70;67.75
71436;SHT31;59251;51.326;12.370;2023-06-19T02:04:32;19.66;67.87
71436;SHT31;59251;51.326;12.370;2023-06-19T02:06:59;19.70;67.74
71436;SHT31;59251;51.326;12.370;2023-06-19T02:09:25;19.70;67.70
71436;SHT31;59251;51.326;12.370;2023-06-19T02:11:53;19.67;67.74
71436;SHT31;59251;51.326;12.370;2023-06-19T02:14:21;19.63;67.75
71436;SHT31;59251;51.326;12.370;2023-06-19T02:16:48;19.59;67.91
71436;SHT31;59251;51.326;12.370;2023-06-19T02:19:15;19.50;68.13
71436;SHT31;59251;51.326;12.370;2023-06-19T02:21:42;19.49;68.24
71436;SHT31;59251;51.326;12.370;2023-06-19T02:24:08;19.42;68.39
71436;SHT31;59251;51.326;12.370;2023-06-19T02:26:35;19.36;68.58
71436;SHT31;59251;51.326;12.370;2023-06-19T02:29:01;19.34;68.54
71436;SHT31;59251;51.326;12.370;2023-06-19T02:31:30;19.34;68.60
71436;SHT31;59251;51.326;12.370;2023-06-19T02:33:57;19.30;68.73
71436;SHT31;59251;51.326;12.370;2023-06-19T02:36:23;19.29;68.87
71436;SHT31;59251;51.326;12.370;2023-06-19T02:38:51;19.19;69.07
71436;SHT31;59251;51.326;12.370;2023-06-19T02:41:18;19.19;69.22
71436;SHT31;59251;51.326;12.370;2023-06-19T02:43:45;19.20;69.11
71436;SHT31;59251;51.326;12.370;2023-06-19T02:46:12;19.16;69.24
71436;SHT31;59251;51.326;12.370;2023-06-19T02:48:41;19.18;69.27
71436;SHT31;59251;51.326;12.370;2023-06-19T02:51:08;19.15;69.34
71436;SHT31;59251;51.326;12.370;2023-06-19T02:53:35;19.19;69.29
71436;SHT31;59251;51.326;12.370;2023-06-19T02:56:01;19.15;69.42
71436;SHT31;59251;51.326;12.370;2023-06-19T02:58:28;19.11;69.53
71436;SHT31;59251;51.326;12.370;2023-06-19T03:00:55;19.09;69.71
71436;SHT31;59251;51.326;12.370;2023-06-19T03:03:22;19.08;69.81
71436;SHT31;59251;51.326;12.370;2023-06-19T03:05:51;19.09;69.94
71436;SHT31;59251;51.326;12.370;2023-06-19T03:08:18;18.98;70.21
71436;SHT31;59251;51.326;12.370;2023-06-19T03:10:44;18.92;70.41
71436;SHT31;59251;51.326;12.370;2023-06-19T03:13:12;18.89;70.56
71436;SHT31;59251;51.326;12.370;2023-06-19T03:15:39;18.88;70.64
71436;SHT31;59251;51.326;12.370;2023-06-19T03:18:06;18.94;70.58
71436;SHT31;59251;51.326;12.370;2023-06-19T03:20:36;18.91;70.73
71436;SHT31;59251;51.326;12.370;2023-06-19T03:23:04;18.96;70.64
71436;SHT31;59251;51.326;12.370;2023-06-19T03:25:31;18.98;70.55
71436;SHT31;59251;51.326;12.370;2023-06-19T03:28:00;19.06;70.48
71436;SHT31;59251;51.326;12.370;2023-06-19T03:30:28;19.11;70.45
71436;SHT31;59251;51.326;12.370;2023-06-19T03:32:54;19.20;70.24
71436;SHT31;59251;51.326;12.370;2023-06-19T03:35:38;19.27;70.10
71436;SHT31;59251;51.326;12.370;2023-06-19T03:38:08;19.26;70.13
71436;SHT31;59251;51.326;12.370;2023-06-19T03:40:35;19.27;70.09
71436;SHT31;59251;51.326;12.370;2023-06-19T03:43:10;19.24;70.23
71436;SHT31;59251;51.326;12.370;2023-06-19T03:45:37;19.33;70.00
71436;SHT31;59251;51.326;12.370;2023-06-19T03:48:04;19.27;70.24
71436;SHT31;59251;51.326;12.370;2023-06-19T03:50:31;19.29;70.37
71436;SHT31;59251;51.326;12.370;2023-06-19T03:52:58;19.39;70.14
71436;SHT31;59251;51.326;12.370;2023-06-19T03:55:26;19.46;69.88
71436;SHT31;59251;51.326;12.370;2023-06-19T03:57:52;19.53;69.72
71436;SHT31;59251;51.326;12.370;2023-06-19T04:00:21;19.57;69.76
71436;SHT31;59251;51.326;12.370;2023-06-19T04:02:49;19.64;69.68
71436;SHT31;59251;51.326;12.370;2023-06-19T04:05:16;19.69;69.60
71436;SHT31;59251;51.326;12.370;2023-06-19T04:07:42;19.74;69.54
71436;SHT31;59251;51.326;12.370;2023-06-19T04:10:09;19.78;69.32
71436;SHT31;59251;51.326;12.370;2023-06-19T04:12:40;19.74;69.46
71436;SHT31;59251;51.326;12.370;2023-06-19T04:15:07;19.70;69.65
71436;SHT31;59251;51.326;12.370;2023-06-19T04:17:34;19.77;69.49
71436;SHT31;59251;51.326;12.370;2023-06-19T04:20:02;19.81;69.51
71436;SHT31;59251;51.326;12.370;2023-06-19T04:22:32;19.91;69.28
71436;SHT31;59251;51.326;12.370;2023-06-19T04:25:01;19.97;69.19
71436;SHT31;59251;51.326;12.370;2023-06-19T04:27:28;20.02;69.17
71436;SHT31;59251;51.326;12.370;2023-06-19T04:29:56;20.08;69.10
71436;SHT31;59251;51.326;12.370;2023-06-19T04:32:23;20.11;69.12
71436;SHT31;59251;51.326;12.370;2023-06-19T04:34:49;20.12;69.24
71436;SHT31;59251;51.326;12.370;2023-06-19T04:37:16;20.14;69.29
71436;SHT31;59251;51.326;12.370;2023-06-19T04:39:44;20.15;69.35
71436;SHT31;59251;51.326;12.370;2023-06-19T04:42:13;20.25;69.45
71436;SHT31;59251;51.326;12.370;2023-06-19T04:44:45;20.32;69.59
71436;SHT31;59251;51.326;12.370;2023-06-19T04:47:13;20.42;69.92
71436;SHT31;59251;51.326;12.370;2023-06-19T04:49:41;20.46;70.43
71436;SHT31;59251;51.326;12.370;2023-06-19T04:52:07;20.47;70.47
71436;SHT31;59251;51.326;12.370;2023-06-19T04:54:34;20.69;69.84
71436;SHT31;59251;51.326;12.370;2023-06-19T04:57:01;20.72;69.60
71436;SHT31;59251;51.326;12.370;2023-06-19T04:59:28;20.93;69.13
71436;SHT31;59251;51.326;12.370;2023-06-19T05:01:55;20.91;68.90
71436;SHT31;59251;51.326;12.370;2023-06-19T05:04:25;20.90;69.00
71436;SHT31;59251;51.326;12.370;2023-06-19T05:06:51;21.01;68.82
71436;SHT31;59251;51.326;12.370;2023-06-19T05:09:18;21.01;68.89
71436;SHT31;59251;51.326;12.370;2023-06-19T05:11:45;21.00;69.11
71436;SHT31;59251;51.326;12.370;2023-06-19T05:14:12;21.10;68.71
71436;SHT31;59251;51.326;12.370;2023-06-19T05:16:39;21.03;69.11
71436;SHT31;59251;51.326;12.370;2023-06-19T05:19:06;20.90;69.34
71436;SHT31;59251;51.326;12.370;2023-06-19T05:21:34;20.76;69.34
71436;SHT31;59251;51.326;12.370;2023-06-19T05:24:01;20.86;69.19
71436;SHT31;59251;51.326;12.370;2023-06-19T05:26:27;20.87;69.05
71436;SHT31;59251;51.326;12.370;2023-06-19T05:28:54;20.94;68.66
71436;SHT31;59251;51.326;12.370;2023-06-19T05:31:21;20.86;68.60
71436;SHT31;59251;51.326;12.370;2023-06-19T05:33:47;20.91;68.57
71436;SHT31;59251;51.326;12.370;2023-06-19T05:36:14;20.84;68.62
71436;SHT31;59251;51.326;12.370;2023-06-19T05:38:42;20.94;68.60
71436;SHT31;59251;51.326;12.370;2023-06-19T05:41:09;21.04;68.44
71436;SHT31;59251;51.326;12.370;2023-06-19T05:43:36;21.05;68.40
71436;SHT31;59251;51.326;12.370;2023-06-19T05:46:02;20.97;68.74
71436;SHT31;59251;51.326;12.370;2023-06-19T05:48:29;21.07;68.65
71436;SHT31;59251;51.326;12.370;2023-06-19T05:50:56;21.12;68.78
71436;SHT31;59251;51.326;12.370;2023-06-19T05:53:23;21.05;68.95
71436;SHT31;59251;51.326;12.370;2023-06-19T05:55:51;21.03;68.95
71436;SHT31;59251;51.326;12.370;2023-06-19T05:58:17;21.07;68.71
71436;SHT31;59251;51.326;12.370;2023-06-19T06:00:45;21.00;68.99
71436;SHT31;59251;51.326;12.370;2023-06-19T06:03:12;20.84;69.56
71436;SHT31;59251;51.326;12.370;2023-06-19T06:05:39;20.83;70.16
71436;SHT31;59251;51.326;12.370;2023-06-19T06:08:05;20.66;71.20
71436;SHT31;59251;51.326;12.370;2023-06-19T06:10:32;20.79;71.66
71436;SHT31;59251;51.326;12.370;2023-06-19T06:13:00;20.47;73.47
71436;SHT31;59251;51.326;12.370;2023-06-19T06:15:27;20.56;73.22
71436;SHT31;59251;51.326;12.370;2023-06-19T06:17:54;20.42;73.74
71436;SHT31;59251;51.326;12.370;2023-06-19T06:20:21;20.24;74.33
71436;SHT31;59251;51.326;12.370;2023-06-19T06:22:47;20.33;75.16
71436;SHT31;59251;51.326;12.370;2023-06-19T06:25:14;20.40;75.45
71436;SHT31;59251;51.326;12.370;2023-06-19T06:27:41;20.24;77.61
71436;SHT31;59251;51.326;12.370;2023-06-19T06:30:10;20.29;76.82
71436;SHT31;59251;51.326;12.370;2023-06-19T06:32:38;20.26;76.58
71436;SHT31;59251;51.326;12.370;2023-06-19T06:35:05;20.26;76.57
71436;SHT31;59251;51.326;12.370;2023-06-19T06:37:32;20.12;77.09
71436;SHT31;59251;51.326;12.370;2023-06-19T06:39:59;20.14;76.35
71436;SHT31;59251;51.326;12.370;2023-06-19T06:42:26;20.18;76.60
71436;SHT31;59251;51.326;12.370;2023-06-19T06:44:53;20.11;77.29
71436;SHT31;59251;51.326;12.370;2023-06-19T06:47:21;19.97;76.27
71436;SHT31;59251;51.326;12.370;2023-06-19T06:49:48;20.02;76.73
71436;SHT31;59251;51.326;12.370;2023-06-19T06:52:14;20.08;76.33
71436;SHT31;59251;51.326;12.370;2023-06-19T06:54:41;20.12;76.05
71436;SHT31;59251;51.326;12.370;2023-06-19T06:57:08;20.14;75.78
71436;SHT31;59251;51.326;12.370;2023-06-19T06:59:34;20.29;75.71
71436;SHT31;59251;51.326;12.370;2023-06-19T07:02:01;20.35;75.63
71436;SHT31;59251;51.326;12.370;2023-06-19T07:04:29;20.33;76.28
71436;SHT31;59251;51.326;12.370;2023-06-19T07:06:57;20.29;76.35
71436;SHT31;59251;51.326;12.370;2023-06-19T07:09:24;20.28;76.63
71436;SHT31;59251;51.326;12.370;2023-06-19T07:11:51;20.45;75.45
71436;SHT31;59251;51.326;12.370;2023-06-19T07:14:17;20.49;75.51
71436;SHT31;59251;51.326;12.370;2023-06-19T07:16:44;20.63;74.33
71436;SHT31;59251;51.326;12.370;2023-06-19T07:19:11;20.70;74.36
71436;SHT31;59251;51.326;12.370;2023-06-19T07:21:40;20.80;74.06
71436;SHT31;59251;51.326;12.370;2023-06-19T07:24:07;20.90;73.11
71436;SHT31;59251;51.326;12.370;2023-06-19T07:26:34;20.77;73.46
71436;SHT31;59251;51.326;12.370;2023-06-19T07:29:01;20.76;72.95
71436;SHT31;59251;51.326;12.370;2023-06-19T07:31:28;20.93;73.00
71436;SHT31;59251;51.326;12.370;2023-06-19T07:33:54;20.91;72.74
71436;SHT31;59251;51.326;12.370;2023-06-19T07:36:21;21.01;71.73
71436;SHT31;59251;51.326;12.370;2023-06-19T07:38:49;21.37;71.12
71436;SHT31;59251;51.326;12.370;2023-06-19T07:41:16;21.35;70.89
71436;SHT31;59251;51.326;12.370;2023-06-19T07:43:42;21.43;70.55
71436;SHT31;59251;51.326;12.370;2023-06-19T07:46:09;21.53;69.96
71436;SHT31;59251;51.326;12.370;2023-06-19T07:48:36;21.55;70.05
71436;SHT31;59251;51.326;12.370;2023-06-19T07:51:03;21.76;69.47
71436;SHT31;59251;51.326;12.370;2023-06-19T07:53:30;22.20;68.34
71436;SHT31;59251;51.326;12.370;2023-06-19T07:55:58;22.30;67.70
71436;SHT31;59251;51.326;12.370;2023-06-19T07:58:24;22.36;67.95
71436;SHT31;59251;51.326;12.370;2023-06-19T08:00:51;22.62;67.02
71436;SHT31;59251;51.326;12.370;2023-06-19T08:03:18;22.78;66.53
71436;SHT31;59251;51.326;12.370;2023-06-19T08:05:44;22.65;66.75
71436;SHT31;59251;51.326;12.370;2023-06-19T08:08:12;22.49;66.99
71436;SHT31;59251;51.326;12.370;2023-06-19T08:10:39;22.64;66.37
71436;SHT31;59251;51.326;12.370;2023-06-19T08:13:07;22.73;66.08
71436;SHT31;59251;51.326;12.370;2023-06-19T08:15:36;22.72;66.13
71436;SHT31;59251;51.326;12.370;2023-06-19T08:18:03;22.78;65.81
71436;SHT31;59251;51.326;12.370;2023-06-19T08:20:30;23.28;64.57
71436;SHT31;59251;51.326;12.370;2023-06-19T08:22:56;23.50;64.56
71436;SHT31;59251;51.326;12.370;2023-06-19T08:25:23;24.04;63.44
71436;SHT31;59251;51.326;12.370;2023-06-19T08:27:50;24.56;61.65
71436;SHT31;59251;51.326;12.370;2023-06-19T08:30:18;24.19;62.34
71436;SHT31;59251;51.326;12.370;2023-06-19T08:32:46;24.37;62.00
71436;SHT31;59251;51.326;12.370;2023-06-19T08:35:13;24.67;61.09
71436;SHT31;59251;51.326;12.370;2023-06-19T08:37:40;24.44;60.38
71436;SHT31;59251;51.326;12.370;2023-06-19T08:40:08;24.46;60.38
71436;SHT31;59251;51.326;12.370;2023-06-19T08:42:35;24.66;60.10
71436;SHT31;59251;51.326;12.370;2023-06-19T08:45:02;25.05;59.15
71436;SHT31;59251;51.326;12.370;2023-06-19T08:47:31;25.45;58.06
71436;SHT31;59251;51.326;12.370;2023-06-19T08:49:59;25.28;58.16
71436;SHT31;59251;51.326;12.370;2023-06-19T08:52:26;25.65;58.07
71436;SHT31;59251;51.326;12.370;2023-06-19T08:54:53;25.83;57.11
71436;SHT31;59251;51.326;12.370;2023-06-19T08:57:19;25.90;56.95
71436;SHT31;59251;51.326;12.370;2023-06-19T08:59:50;26.00;57.38
71436;SHT31;59251;51.326;12.370;2023-06-19T09:02:17;26.29;56.89
71436;SHT31;59251;51.326;12.370;2023-06-19T09:04:45;26.35;56.29
71436;SHT31;59251;51.326;12.370;2023-06-19T09:07:13;26.22;55.71
71436;SHT31;59251;51.326;12.370;2023-06-19T09:09:46;26.39;54.14
71436;SHT31;59251;51.326;12.370;2023-06-19T09:12:13;26.35;53.49
71436;SHT31;59251;51.326;12.370;2023-06-19T09:14:45;26.27;52.22
71436;SHT31;59251;51.326;12.370;2023-06-19T09:17:16;26.44;51.31
71436;SHT31;59251;51.326;12.370;2023-06-19T09:19:49;26.69;51.31
71436;SHT31;59251;51.326;12.370;2023-06-19T09:22:17;26.45;50.04
71436;SHT31;59251;51.326;12.370;2023-06-19T09:24:45;26.90;50.59
71436;SHT31;59251;51.326;12.370;2023-06-19T09:27:13;26.76;51.16
71436;SHT31;59251;51.326;12.370;2023-06-19T09:29:40;26.96;51.57
71436;SHT31;59251;51.326;12.370;2023-06-19T09:32:17;26.78;51.81
71436;SHT31;59251;51.326;12.370;2023-06-19T09:34:46;26.80;51.67
71436;SHT31;59251;51.326;12.370;2023-06-19T09:37:14;26.90;51.71
71436;SHT31;59251;51.326;12.370;2023-06-19T09:39:41;27.07;51.03
71436;SHT31;59251;51.326;12.370;2023-06-19T09:42:13;27.38;51.18
71436;SHT31;59251;51.326;12.370;2023-06-19T09:44:42;27.17;51.64
71436;SHT31;59251;51.326;12.370;2023-06-19T09:47:15;27.17;51.30
71436;SHT31;59251;51.326;12.370;2023-06-19T09:49:48;27.26;51.91
71436;SHT31;59251;51.326;12.370;2023-06-19T09:52:18;28.05;51.18
71436;SHT31;59251;51.326;12.370;2023-06-19T09:54:49;28.29;51.13
71436;SHT31;59251;51.326;12.370;2023-06-19T09:57:16;28.09;51.71
71436;SHT31;59251;51.326;12.370;2023-06-19T09:59:46;28.20;51.48
71436;SHT31;59251;51.326;12.370;2023-06-19T10:02:15;28.67;50.87
71436;SHT31;59251;51.326;12.370;2023-06-19T10:04:44;28.63;50.65
71436;SHT31;59251;51.326;12.370;2023-06-19T10:07:20;28.43;49.59
71436;SHT31;59251;51.326;12.370;2023-06-19T10:10:00;28.14;49.64
71436;SHT31;59251;51.326;12.370;2023-06-19T10:12:37;28.30;48.84
71436;SHT31;59251;51.326;12.370;2023-06-19T10:15:16;28.48;48.66
71436;SHT31;59251;51.326;12.370;2023-06-19T10:17:45;28.60;48.78
71436;SHT31;59251;51.326;12.370;2023-06-19T10:20:24;29.18;47.89
71436;SHT31;59251;51.326;12.370;2023-06-19T10:22:56;29.42;48.00
71436;SHT31;59251;51.326;12.370;2023-06-19T10:25:23;29.36;48.08
71436;SHT31;59251;51.326;12.370;2023-06-19T10:27:50;28.95;48.80
71436;SHT31;59251;51.326;12.370;2023-06-19T10:30:18;28.87;48.87
71436;SHT31;59251;51.326;12.370;2023-06-19T10:32:46;29.22;48.72
71436;SHT31;59251;51.326;12.370;2023-06-19T10:35:13;29.19;47.91
71436;SHT31;59251;51.326;12.370;2023-06-19T10:37:40;29.19;47.88
71436;SHT31;59251;51.326;12.370;2023-06-19T10:40:10;29.30;47.83
71436;SHT31;59251;51.326;12.370;2023-06-19T10:42:38;29.22;47.98
71436;SHT31;59251;51.326;12.370;2023-06-19T10:45:07;28.99;48.60
71436;SHT31;59251;51.326;12.370;2023-06-19T10:47:34;28.94;48.56
71436;SHT31;59251;51.326;12.370;2023-06-19T10:50:01;28.88;48.12
71436;SHT31;59251;51.326;12.370;2023-06-19T10:52:29;29.11;47.73
71436;SHT31;59251;51.326;12.370;2023-06-19T10:54:56;29.12;47.96
71436;SHT31;59251;51.326;12.370;2023-06-19T10:57:28;29.18;48.32
71436;SHT31;59251;51.326;12.370;2023-06-19T10:59:55;29.71;47.04
71436;SHT31;59251;51.326;12.370;2023-06-19T11:02:22;29.62;46.28
71436;SHT31;59251;51.326;12.370;2023-06-19T11:04:52;29.66;46.73
71436;SHT31;59251;51.326;12.370;2023-06-19T11:07:18;29.32;47.67
71436;SHT31;59251;51.326;12.370;2023-06-19T11:09:45;29.20;48.10
71436;SHT31;59251;51.326;12.370;2023-06-19T11:12:18;29.92;46.67
71436;SHT31;59251;51.326;12.370;2023-06-19T11:14:47;30.19;46.47
71436;SHT31;59251;51.326;12.370;2023-06-19T11:17:14;30.22;46.62
71436;SHT31;59251;51.326;12.370;2023-06-19T11:19:41;30.19;46.62
71436;SHT31;59251;51.326;12.370;2023-06-19T11:22:09;29.97;45.99
71436;SHT31;59251;51.326;12.370;2023-06-19T11:24:36;29.80;46.21
71436;SHT31;59251;51.326;12.370;2023-06-19T11:27:04;29.54;46.68
71436;SHT31;59251;51.326;12.370;2023-06-19T11:29:31;29.85;46.47
71436;SHT31;59251;51.326;12.370;2023-06-19T11:32:07;29.67;47.14
71436;SHT31;59251;51.326;12.370;2023-06-19T11:34:38;29.98;46.66
71436;SHT31;59251;51.326;12.370;2023-06-19T11:37:11;30.29;46.02
71436;SHT31;59251;51.326;12.370;2023-06-19T11:39:38;30.60;45.64
71436;SHT31;59251;51.326;12.370;2023-06-19T11:42:06;31.00;44.87
71436;SHT31;59251;51.326;12.370;2023-06-19T11:44:33;30.70;45.68
71436;SHT31;59251;51.326;12.370;2023-06-19T11:47:00;30.56;45.48
71436;SHT31;59251;51.326;12.370;2023-06-19T11:49:34;30.48;45.50
71436;SHT31;59251;51.326;12.370;2023-06-19T11:52:01;30.63;45.36
71436;SHT31;59251;51.326;12.370;2023-06-19T11:54:29;30.77;44.76
71436;SHT31;59251;51.326;12.370;2023-06-19T11:56:55;30.77;45.33
71436;SHT31;59251;51.326;12.370;2023-06-19T11:59:22;30.63;45.18
71436;SHT31;59251;51.326;12.370;2023-06-19T12:01:49;31.55;43.86
71436;SHT31;59251;51.326;12.370;2023-06-19T12:04:15;32.21;42.85
71436;SHT31;59251;51.326;12.370;2023-06-19T12:06:44;32.12;42.79
71436;SHT31;59251;51.326;12.370;2023-06-19T12:09:10;32.08;42.93
71436;SHT31;59251;51.326;12.370;2023-06-19T12:11:37;32.43;42.11
71436;SHT31;59251;51.326;12.370;2023-06-19T12:14:04;32.84;41.20
71436;SHT31;59251;51.326;12.370;2023-06-19T12:16:30;31.73;42.21
71436;SHT31;59251;51.326;12.370;2023-06-19T12:18:57;32.00;42.25
71436;SHT31;59251;51.326;12.370;2023-06-19T12:21:24;31.76;42.61
71436;SHT31;59251;51.326;12.370;2023-06-19T12:23:52;32.51;41.00
71436;SHT31;59251;51.326;12.370;2023-06-19T12:26:19;33.30;40.80
71436;SHT31;59251;51.326;12.370;2023-06-19T12:28:46;33.33;41.18
71436;SHT31;59251;51.326;12.370;2023-06-19T12:31:13;33.27;40.97
71436;SHT31;59251;51.326;12.370;2023-06-19T12:33:40;33.45;40.48
71436;SHT31;59251;51.326;12.370;2023-06-19T12:36:10;32.89;41.46
71436;SHT31;59251;51.326;12.370;2023-06-19T12:38:38;32.60;41.92
71436;SHT31;59251;51.326;12.370;2023-06-19T12:41:07;33.49;40.74
71436;SHT31;59251;51.326;12.370;2023-06-19T12:43:33;33.29;40.87
71436;SHT31;59251;51.326;12.370;2023-06-19T12:46:00;32.78;41.38
71436;SHT31;59251;51.326;12.370;2023-06-19T12:48:27;34.17;40.08
71436;SHT31;59251;51.326;12.370;2023-06-19T12:50:54;34.14;39.84
71436;SHT31;59251;51.326;12.370;2023-06-19T12:53:21;34.37;38.83
71436;SHT31;59251;51.326;12.370;2023-06-19T12:55:52;33.46;40.24
71436;SHT31;59251;51.326;12.370;2023-06-19T12:58:20;33.81;38.91
71436;SHT31;59251;51.326;12.370;2023-06-19T13:00:46;33.61;39.67
71436;SHT31;59251;51.326;12.370;2023-06-19T13:03:13;34.32;38.87
71436;SHT31;59251;51.326;12.370;2023-06-19T13:05:40;33.12;40.18
71436;SHT31;59251;51.326;12.370;2023-06-19T13:08:07;32.30;41.33
71436;SHT31;59251;51.326;12.370;2023-06-19T13:10:33;32.88;40.47
71436;SHT31;59251;51.326;12.370;2023-06-19T13:13:00;32.99;40.61
71436;SHT31;59251;51.326;12.370;2023-06-19T13:15:28;33.45;39.69
71436;SHT31;59251;51.326;12.370;2023-06-19T13:17:55;32.37;40.92
71436;SHT31;59251;51.326;12.370;2023-06-19T13:20:21;33.91;38.85
71436;SHT31;59251;51.326;12.370;2023-06-19T13:22:48;33.54;39.00
71436;SHT31;59251;51.326;12.370;2023-06-19T13:25:15;35.45;37.22
71436;SHT31;59251;51.326;12.370;2023-06-19T13:27:42;35.18;37.19
71436;SHT31;59251;51.326;12.370;2023-06-19T13:30:09;36.08;36.15
71436;SHT31;59251;51.326;12.370;2023-06-19T13:32:37;34.44;38.50
71436;SHT31;59251;51.326;12.370;2023-06-19T13:35:05;33.43;39.54
71436;SHT31;59251;51.326;12.370;2023-06-19T13:37:33;33.82;39.16
71436;SHT31;59251;51.326;12.370;2023-06-19T13:40:00;33.94;39.24
71436;SHT31;59251;51.326;12.370;2023-06-19T13:42:29;33.34;39.89
71436;SHT31;59251;51.326;12.370;2023-06-19T13:44:56;32.67;40.70
71436;SHT31;59251;51.326;12.370;2023-06-19T13:47:22;32.96;40.20
71436;SHT31;59251;51.326;12.370;2023-06-19T13:49:51;33.46;39.71
71436;SHT31;59251;51.326;12.370;2023-06-19T13:52:18;34.45;38.74
71436;SHT31;59251;51.326;12.370;2023-06-19T13:54:45;35.54;38.33
71436;SHT31;59251;51.326;12.370;2023-06-19T13:57:12;35.54;38.70
71436;SHT31;59251;51.326;12.370;2023-06-19T13:59:39;34.97;39.55
71436;SHT31;59251;51.326;12.370;2023-06-19T14:02:06;34.79;39.71
71436;SHT31;59251;51.326;12.370;2023-06-19T14:04:33;34.21;40.46
71436;SHT31;59251;51.326;12.370;2023-06-19T14:07:01;34.32;40.44
71436;SHT31;59251;51.326;12.370;2023-06-19T14:09:28;33.70;41.49
71436;SHT31;59251;51.326;12.370;2023-06-19T14:11:55;33.52;41.78
71436;SHT31;59251;51.326;12.370;2023-06-19T14:14:22;33.16;41.92
71436;SHT31;59251;51.326;12.370;2023-06-19T14:16:48;32.88;42.78
71436;SHT31;59251;51.326;12.370;2023-06-19T14:19:15;32.79;43.02
71436;SHT31;59251;51.326;12.370;2023-06-19T14:21:42;33.16;42.41
71436;SHT31;59251;51.326;12.370;2023-06-19T14:24:10;33.90;41.69
71436;SHT31;59251;51.326;12.370;2023-06-19T14:26:37;33.93;41.32
71436;SHT31;59251;51.326;12.370;2023-06-19T14:29:03;34.75;39.95
71436;SHT31;59251;51.326;12.370;2023-06-19T14:31:30;35.45;38.53
71436;SHT31;59251;51.326;12.370;2023-06-19T14:33:56;35.15;38.47
71436;SHT31;59251;51.326;12.370;2023-06-19T14:36:23;34.44;39.53
71436;SHT31;59251;51.326;12.370;2023-06-19T14:38:50;34.21;40.20
71436;SHT31;59251;51.326;12.370;2023-06-19T14:41:18;32.92;41.65
71436;SHT31;59251;51.326;12.370;2023-06-19T14:43:44;33.73;40.84
71436;SHT31;59251;51.326;12.370;2023-06-19T14:46:11;33.94;40.24
71436;SHT31;59251;51.326;12.370;2023-06-19T14:48:38;34.72;39.79
71436;SHT31;59251;51.326;12.370;2023-06-19T14:51:05;34.86;39.21
71436;SHT31;59251;51.326;12.370;2023-06-19T14:53:31;35.78;38.08
71436;SHT31;59251;51.326;12.370;2023-06-19T14:55:58;35.42;38.51
71436;SHT31;59251;51.326;12.370;2023-06-19T14:58:27;34.93;38.99
71436;SHT31;59251;51.326;12.370;2023-06-19T15:00:54;35.68;37.84
71436;SHT31;59251;51.326;12.370;2023-06-19T15:03:21;35.27;38.92
71436;SHT31;59251;51.326;12.370;2023-06-19T15:05:47;34.72;39.79
71436;SHT31;59251;51.326;12.370;2023-06-19T15:08:14;34.89;39.29
71436;SHT31;59251;51.326;12.370;2023-06-19T15:10:46;35.57;38.69
71436;SHT31;59251;51.326;12.370;2023-06-19T15:13:13;36.03;38.22
71436;SHT31;59251;51.326;12.370;2023-06-19T15:15:42;35.69;38.73
71436;SHT31;59251;51.326;12.370;2023-06-19T15:18:09;35.71;38.76